Time;durP1;ratioP1;P1;durP2;ratioP2;P2;SDS_P1;SDS_P2;PMS_P1;PMS_P2;Temp;Humidity;BMP_temperature;BMP_pressure;BME280_temperature;BME280_humidity;BME280_pressure;Samples;Min_cycle;Max_cycle;Signal;HPM_P1;HPM_P2
2023/05/29 00:01:04;;;;;;;5.60;5.00;;;14.40;57.50;;;;;;6282621;28;20767;-82
2023/05/29 00:04:07;;;;;;;6.73;4.80;;;14.30;57.60;;;;;;6290258;28;20237;-82
2023/05/29 00:07:12;;;;;;;6.60;5.57;;;14.30;58.00;;;;;;6281747;28;20586;-82
2023/05/29 00:10:16;;;;;;;5.90;4.80;;;14.20;57.90;;;;;;6287050;28;20244;-83
2023/05/29 00:13:20;;;;;;;7.67;4.77;;;14.20;57.70;;;;;;6292291;28;20237;-83
2023/05/29 00:16:24;;;;;;;5.53;4.73;;;14.20;57.90;;;;;;6281671;28;20247;-83
2023/05/29 00:19:28;;;;;;;5.17;4.73;;;14.10;57.60;;;;;;6282985;28;20233;-83
2023/05/29 00:22:31;;;;;;;5.20;4.70;;;14.10;57.60;;;;;;6306182;28;20237;-83
2023/05/29 00:25:35;;;;;;;7.73;5.30;;;14.10;57.70;;;;;;6325954;28;20244;-83
2023/05/29 00:28:40;;;;;;;5.33;4.83;;;14.10;57.60;;;;;;6290732;28;20236;-82
2023/05/29 00:31:43;;;;;;;4.80;4.30;;;14.10;57.80;;;;;;6294852;28;20237;-84
2023/05/29 00:34:47;;;;;;;4.53;4.20;;;14.00;57.70;;;;;;6288007;28;20240;-83
2023/05/29 00:37:50;;;;;;;5.03;4.63;;;14.00;57.70;;;;;;6294731;28;20673;-85
2023/05/29 00:40:53;;;;;;;5.53;5.00;;;14.00;57.90;;;;;;6303931;27;20279;-84
2023/05/29 00:43:59;;;;;;;5.47;5.07;;;13.90;58.20;;;;;;6296656;28;20271;-81
2023/05/29 00:47:03;;;;;;;5.93;5.43;;;13.90;58.30;;;;;;6323479;28;20217;-79
2023/05/29 00:50:09;;;;;;;5.33;4.83;;;13.80;58.50;;;;;;6326386;28;20261;-82
2023/05/29 00:53:12;;;;;;;4.93;4.53;;;13.70;58.60;;;;;;6324148;28;20230;-81
2023/05/29 00:56:16;;;;;;;4.53;4.20;;;13.70;58.60;;;;;;6328080;28;20233;-80
2023/05/29 00:59:22;;;;;;;4.73;4.40;;;13.60;58.70;;;;;;6326106;28;20226;-80
2023/05/29 01:02:29;;;;;;;5.43;4.93;;;13.60;58.70;;;;;;6318506;28;20286;-86
2023/05/29 01:05:34;;;;;;;5.20;4.77;;;13.50;58.90;;;;;;6324111;28;20263;-79
2023/05/29 01:08:37;;;;;;;4.83;4.47;;;13.50;59.00;;;;;;6333303;28;20209;-80
2023/05/29 01:11:51;;;;;;;5.00;4.60;;;13.50;59.00;;;;;;6335570;28;20259;-77
2023/05/29 01:15:15;;;;;;;5.10;4.70;;;13.50;59.00;;;;;;6322116;28;20366;-80
2023/05/29 01:18:32;;;;;;;4.60;4.30;;;13.40;59.30;;;;;;6326968;28;20241;-80
2023/05/29 01:21:59;;;;;;;4.57;4.27;;;13.30;59.20;;;;;;6333639;28;20285;-82
2023/05/29 01:25:14;;;;;;;4.80;4.50;;;13.30;59.20;;;;;;6300102;28;20236;-83
2023/05/29 01:28:24;;;;;;;5.40;5.00;;;13.30;59.30;;;;;;6304142;28;20221;-84
2023/05/29 01:31:28;;;;;;;5.70;4.73;;;13.20;59.50;;;;;;6293917;28;20363;-83
2023/05/29 01:34:32;;;;;;;4.93;4.27;;;13.10;59.50;;;;;;6296040;28;20253;-82
2023/05/29 01:37:35;;;;;;;7.40;5.20;;;13.10;59.60;;;;;;6309076;27;20231;-83
2023/05/29 01:40:39;;;;;;;5.80;5.30;;;13.10;59.80;;;;;;6298277;27;20233;-83
2023/05/29 01:43:44;;;;;;;5.20;4.70;;;13.10;59.70;;;;;;6307059;27;20864;-83
2023/05/29 01:46:48;;;;;;;6.83;5.40;;;13.10;59.80;;;;;;6301704;27;20402;-83
2023/05/29 01:49:53;;;;;;;5.37;4.80;;;13.10;59.90;;;;;;6296143;27;20645;-84
2023/05/29 01:52:56;;;;;;;7.73;5.13;;;13.00;60.00;;;;;;6312791;27;20244;-82
2023/05/29 01:56:00;;;;;;;7.70;5.73;;;13.00;60.10;;;;;;6298196;27;20263;-83
2023/05/29 01:59:07;;;;;;;6.63;5.17;;;13.00;60.30;;;;;;6306903;27;20232;-83
2023/05/29 02:02:11;;;;;;;6.43;5.60;;;12.90;60.40;;;;;;6324893;27;20275;-82
2023/05/29 02:05:14;;;;;;;8.70;5.40;;;12.90;60.50;;;;;;6291495;28;20242;-85
2023/05/29 02:08:18;;;;;;;5.80;5.23;;;12.90;60.40;;;;;;6297395;28;20298;-84
2023/05/29 02:11:21;;;;;;;5.53;4.97;;;12.90;60.50;;;;;;6328896;28;20233;-81
2023/05/29 02:14:26;;;;;;;7.50;5.70;;;12.80;60.70;;;;;;6342057;27;20247;-79
2023/05/29 02:17:30;;;;;;;6.07;5.53;;;12.80;60.90;;;;;;6360480;27;20223;-79
2023/05/29 02:20:35;;;;;;;8.67;5.93;;;12.80;61.00;;;;;;6339941;27;20284;-82
2023/05/29 02:23:39;;;;;;;8.93;5.87;;;12.80;61.30;;;;;;6326813;27;20231;-79
2023/05/29 02:26:43;;;;;;;5.53;5.07;;;12.70;61.20;;;;;;6333189;27;20217;-82
2023/05/29 02:29:47;;;;;;;7.43;6.13;;;12.70;61.20;;;;;;6324982;27;20217;-78
2023/05/29 02:32:50;;;;;;;6.83;6.23;;;12.60;61.90;;;;;;6320009;28;20243;-78
2023/05/29 02:35:54;;;;;;;5.97;5.50;;;12.50;61.90;;;;;;6328627;27;20268;-78
2023/05/29 02:38:57;;;;;;;6.33;5.80;;;12.50;61.90;;;;;;6320456;28;20233;-81
2023/05/29 02:42:00;;;;;;;6.10;5.60;;;12.50;61.90;;;;;;6311561;28;20287;-80
2023/05/29 02:45:06;;;;;;;9.10;6.47;;;12.50;62.00;;;;;;6309897;28;20237;-83
2023/05/29 02:48:09;;;;;;;9.33;6.27;;;12.50;62.50;;;;;;6299590;28;20350;-81
2023/05/29 02:51:12;;;;;;;7.70;6.13;;;12.50;62.50;;;;;;6283110;28;20823;-82
2023/05/29 02:54:16;;;;;;;10.30;6.10;;;12.40;62.90;;;;;;6294724;27;20224;-83
2023/05/29 02:57:19;;;;;;;7.93;6.00;;;12.30;62.90;;;;;;6289653;28;20241;-82
2023/05/29 03:00:25;;;;;;;8.50;5.87;;;12.30;62.80;;;;;;6280784;28;20284;-85
2023/05/29 03:03:28;;;;;;;7.30;5.50;;;12.30;63.10;;;;;;6290095;28;20233;-83
2023/05/29 03:06:33;;;;;;;6.93;6.33;;;12.20;63.10;;;;;;6302418;28;20225;-84
2023/05/29 03:09:36;;;;;;;6.87;5.37;;;12.20;63.20;;;;;;6307996;27;20302;-82
2023/05/29 03:12:41;;;;;;;6.07;5.57;;;12.20;63.30;;;;;;6301207;28;20265;-82
2023/05/29 03:15:45;;;;;;;6.43;5.77;;;12.20;63.30;;;;;;6291411;28;20338;-83
2023/05/29 03:18:49;;;;;;;9.10;6.07;;;12.10;63.50;;;;;;6303543;28;20229;-83
2023/05/29 03:21:52;;;;;;;8.47;6.07;;;12.10;63.70;;;;;;6296499;28;20681;-83
2023/05/29 03:24:55;;;;;;;8.10;5.87;;;12.10;63.70;;;;;;6311146;27;20290;-83
2023/05/29 03:27:58;;;;;;;6.20;5.67;;;12.10;63.90;;;;;;6295080;27;20233;-83
2023/05/29 03:31:03;;;;;;;7.20;6.50;;;12.10;63.90;;;;;;6280331;28;20444;-79
2023/05/29 03:34:06;;;;;;;7.30;6.43;;;12.10;63.90;;;;;;6285767;28;20725;-78
2023/05/29 03:37:10;;;;;;;5.30;4.80;;;12.10;63.90;;;;;;6290777;28;20237;-83
2023/05/29 03:40:13;;;;;;;6.27;5.77;;;12.10;63.80;;;;;;6281802;28;20316;-77
2023/05/29 03:43:16;;;;;;;6.67;6.07;;;12.10;63.70;;;;;;6276953;28;20237;-78
2023/05/29 03:46:21;;;;;;;6.77;5.77;;;12.10;63.80;;;;;;6295823;28;20311;-80
2023/05/29 03:49:24;;;;;;;9.70;6.23;;;12.10;63.80;;;;;;6278861;28;20244;-80
2023/05/29 03:52:27;;;;;;;7.10;5.07;;;12.10;64.00;;;;;;6297819;27;20325;-77
2023/05/29 03:55:30;;;;;;;6.20;5.73;;;12.10;63.70;;;;;;6285396;28;20305;-79
2023/05/29 03:58:34;;;;;;;8.50;5.70;;;12.10;63.60;;;;;;6286094;28;20320;-79
2023/05/29 04:01:38;;;;;;;5.40;5.07;;;12.20;63.50;;;;;;6292409;27;20788;-79
2023/05/29 04:04:42;;;;;;;6.03;5.50;;;12.30;63.30;;;;;;6295166;27;20228;-78
2023/05/29 04:07:45;;;;;;;5.77;5.23;;;12.40;63.20;;;;;;6291727;27;20769;-76
2023/05/29 04:10:53;;;;;;;5.87;5.50;;;12.50;62.90;;;;;;6292437;28;20237;-79
2023/05/29 04:13:56;;;;;;;6.20;5.70;;;12.50;62.80;;;;;;6312639;28;20279;-78
2023/05/29 04:17:02;;;;;;;6.13;5.63;;;12.50;62.80;;;;;;6283886;27;20233;-79
2023/05/29 04:20:08;;;;;;;5.50;5.00;;;12.50;62.80;;;;;;6293326;28;20297;-76
2023/05/29 04:23:12;;;;;;;5.50;5.13;;;12.50;62.60;;;;;;6297967;28;20249;-81
2023/05/29 04:26:15;;;;;;;6.00;5.40;;;12.70;62.20;;;;;;6305047;28;20312;-76
2023/05/29 04:29:19;;;;;;;5.30;5.00;;;12.80;62.00;;;;;;6282000;28;20236;-77
2023/05/29 04:32:23;;;;;;;5.03;4.63;;;13.00;61.90;;;;;;6312558;27;20739;-79
2023/05/29 04:35:28;;;;;;;5.80;5.27;;;13.10;61.50;;;;;;6294315;28;20237;-77
2023/05/29 04:38:31;;;;;;;5.73;5.13;;;13.20;61.20;;;;;;6293189;27;20743;-77
2023/05/29 04:41:35;;;;;;;5.87;5.10;;;13.30;61.00;;;;;;6292447;27;20244;-79
2023/05/29 04:44:38;;;;;;;6.23;5.73;;;13.40;60.80;;;;;;6291969;28;20754;-77
2023/05/29 04:47:44;;;;;;;7.43;5.63;;;13.50;60.50;;;;;;6291550;27;20315;-79
2023/05/29 04:50:48;;;;;;;5.43;5.10;;;13.60;60.30;;;;;;6322558;27;20233;-75
2023/05/29 04:53:52;;;;;;;5.23;4.70;;;13.80;60.00;;;;;;6286467;28;20229;-79
2023/05/29 04:56:55;;;;;;;5.37;4.63;;;13.90;59.70;;;;;;6311034;28;20834;-78
2023/05/29 04:59:58;;;;;;;5.30;4.90;;;14.00;59.30;;;;;;6290573;28;20257;-75
2023/05/29 05:03:03;;;;;;;5.43;4.60;;;14.10;58.90;;;;;;6289419;28;20225;-78
2023/05/29 05:06:07;;;;;;;5.73;5.23;;;14.10;58.80;;;;;;6301066;28;20229;-79
2023/05/29 05:09:10;;;;;;;6.57;4.80;;;14.20;58.70;;;;;;6308833;27;20235;-78
2023/05/29 05:12:14;;;;;;;5.60;5.10;;;14.40;58.60;;;;;;6298556;27;20779;-77
2023/05/29 05:15:17;;;;;;;5.40;4.90;;;14.60;58.00;;;;;;6287828;28;20260;-79
2023/05/29 05:18:21;;;;;;;4.53;4.30;;;14.90;57.50;;;;;;6286243;27;20328;-79
2023/05/29 05:21:24;;;;;;;5.40;4.97;;;15.30;56.50;;;;;;6293173;28;20244;-78
2023/05/29 05:24:27;;;;;;;4.53;4.27;;;15.50;56.10;;;;;;6285107;28;20299;-77
2023/05/29 05:27:31;;;;;;;4.70;4.40;;;15.70;55.90;;;;;;6321421;27;20250;-78
2023/05/29 05:30:34;;;;;;;4.60;4.17;;;16.00;55.80;;;;;;6291210;28;20293;-80
2023/05/29 05:33:38;;;;;;;4.77;4.30;;;16.40;55.20;;;;;;6309100;28;20256;-78
2023/05/29 05:36:41;;;;;;;5.97;4.27;;;16.50;54.70;;;;;;6284693;28;20229;-79
2023/05/29 05:39:45;;;;;;;4.90;4.47;;;16.70;54.60;;;;;;6297144;28;20316;-79
2023/05/29 05:42:48;;;;;;;4.67;4.20;;;17.00;54.20;;;;;;6286278;28;20314;-78
2023/05/29 05:45:51;;;;;;;3.70;3.50;;;17.30;53.60;;;;;;6293519;28;20242;-79
2023/05/29 05:48:57;;;;;;;4.17;3.90;;;17.60;53.30;;;;;;6290871;27;20227;-79
2023/05/29 05:52:00;;;;;;;4.47;4.00;;;18.00;52.60;;;;;;6308032;28;20249;-79
2023/05/29 05:55:04;;;;;;;4.10;3.80;;;18.10;51.50;;;;;;6287613;28;20316;-78
2023/05/29 05:58:07;;;;;;;3.83;3.63;;;17.90;51.30;;;;;;6293442;27;20225;-79
2023/05/29 06:01:10;;;;;;;4.30;4.00;;;18.00;51.50;;;;;;6287853;28;20654;-79
2023/05/29 06:04:14;;;;;;;3.60;3.40;;;17.90;51.20;;;;;;6293502;27;20367;-79
2023/05/29 06:07:18;;;;;;;4.60;3.90;;;18.00;50.90;;;;;;6288456;27;20729;-81
2023/05/29 06:10:22;;;;;;;3.33;3.23;;;18.20;51.30;;;;;;6304941;27;20267;-78
2023/05/29 06:13:25;;;;;;;3.87;3.57;;;18.40;51.20;;;;;;6309280;28;20626;-76
2023/05/29 06:16:28;;;;;;;3.60;3.40;;;18.70;50.20;;;;;;6311851;28;20935;-79
2023/05/29 06:19:33;;;;;;;3.60;3.40;;;19.10;50.60;;;;;;6314163;28;20321;-79
2023/05/29 06:22:37;;;;;;;3.30;3.20;;;19.40;50.10;;;;;;6312298;28;20237;-78
2023/05/29 06:25:41;;;;;;;3.40;3.20;;;19.50;49.10;;;;;;6319182;27;20359;-79
2023/05/29 06:28:44;;;;;;;3.10;3.00;;;19.50;48.40;;;;;;6317130;28;20232;-78
2023/05/29 06:31:47;;;;;;;3.13;3.03;;;19.50;48.80;;;;;;6313379;28;20251;-76
2023/05/29 06:34:51;;;;;;;2.77;2.63;;;19.70;48.40;;;;;;6315349;27;20318;-79
2023/05/29 06:37:54;;;;;;;3.70;3.40;;;19.70;48.30;;;;;;6332192;27;20236;-79
2023/05/29 06:40:59;;;;;;;2.93;2.83;;;19.70;48.90;;;;;;6312488;28;20331;-78
2023/05/29 06:44:02;;;;;;;3.20;3.07;;;19.70;48.40;;;;;;6313313;28;20354;-78
2023/05/29 06:47:07;;;;;;;3.57;3.47;;;19.80;48.10;;;;;;6311697;28;20240;-79
2023/05/29 06:50:12;;;;;;;2.93;2.80;;;20.00;48.60;;;;;;6345437;27;20831;-77
2023/05/29 06:53:15;;;;;;;4.17;2.83;;;20.50;47.30;;;;;;6318091;27;20239;-79
2023/05/29 06:56:18;;;;;;;3.57;3.00;;;20.60;47.00;;;;;;6313074;28;20337;-79
2023/05/29 06:59:21;;;;;;;3.13;2.97;;;20.90;46.30;;;;;;6315774;27;20247;-78
2023/05/29 07:02:24;;;;;;;3.40;3.20;;;20.60;46.10;;;;;;6306654;28;20243;-78
2023/05/29 07:05:29;;;;;;;3.13;2.97;;;20.50;46.40;;;;;;6312539;28;20235;-79
2023/05/29 07:08:32;;;;;;;3.30;3.10;;;20.60;46.60;;;;;;6314283;28;20723;-78
2023/05/29 07:11:35;;;;;;;2.80;2.60;;;20.70;46.10;;;;;;6315777;28;20232;-78
2023/05/29 07:14:38;;;;;;;3.13;3.03;;;20.70;46.30;;;;;;6317791;28;20236;-79
2023/05/29 07:17:42;;;;;;;3.23;2.97;;;20.90;46.70;;;;;;6315571;28;20260;-78
2023/05/29 07:20:46;;;;;;;3.33;3.13;;;21.00;46.50;;;;;;6315201;28;20746;-77
2023/05/29 07:23:50;;;;;;;2.93;2.73;;;20.80;47.20;;;;;;6317053;28;20233;-80
2023/05/29 07:26:55;;;;;;;3.43;3.23;;;20.70;47.10;;;;;;6313268;28;20302;-77
2023/05/29 07:29:58;;;;;;;3.20;3.10;;;20.80;47.30;;;;;;6309843;28;20233;-80
2023/05/29 07:33:01;;;;;;;3.27;3.07;;;21.00;46.60;;;;;;6308962;28;20719;-79
2023/05/29 07:36:07;;;;;;;3.40;3.10;;;21.00;45.90;;;;;;6302337;27;20237;-78
2023/05/29 07:39:10;;;;;;;3.40;3.20;;;20.90;46.30;;;;;;6312907;28;20228;-80
2023/05/29 07:42:13;;;;;;;3.13;3.00;;;20.90;46.60;;;;;;6310700;28;20321;-78
2023/05/29 07:45:16;;;;;;;2.50;2.40;;;21.00;46.70;;;;;;6311779;28;20274;-78
2023/05/29 07:48:19;;;;;;;2.93;2.83;;;21.00;45.10;;;;;;6319493;28;20779;-78
2023/05/29 07:51:26;;;;;;;2.70;2.70;;;20.80;45.80;;;;;;6306016;28;20240;-77
2023/05/29 07:54:29;;;;;;;3.30;3.03;;;20.80;45.60;;;;;;6310560;28;20242;-79
2023/05/29 07:57:33;;;;;;;2.67;2.50;;;21.10;46.30;;;;;;6318488;28;20240;-76
2023/05/29 08:00:36;;;;;;;3.40;3.10;;;20.90;45.30;;;;;;6315895;28;20356;-78
2023/05/29 08:03:39;;;;;;;2.93;2.83;;;20.80;46.40;;;;;;6305307;28;20327;-79
2023/05/29 08:06:43;;;;;;;2.90;2.80;;;20.90;45.30;;;;;;6311974;28;20244;-77
2023/05/29 08:09:47;;;;;;;2.93;2.83;;;21.00;45.90;;;;;;6317101;28;20248;-78
2023/05/29 08:12:50;;;;;;;2.93;2.73;;;20.90;45.70;;;;;;6321151;28;20305;-79
2023/05/29 08:15:53;;;;;;;2.87;2.67;;;20.80;45.80;;;;;;6314605;28;20224;-78
2023/05/29 08:18:56;;;;;;;2.70;2.60;;;21.00;45.60;;;;;;6315457;28;20287;-79
2023/05/29 08:22:01;;;;;;;3.30;3.07;;;21.00;45.00;;;;;;6305657;28;20248;-77
2023/05/29 08:25:05;;;;;;;2.90;2.80;;;20.90;45.20;;;;;;6315202;28;20236;-77
2023/05/29 08:28:08;;;;;;;3.23;3.03;;;20.80;45.40;;;;;;6310169;28;20228;-80
2023/05/29 08:31:11;;;;;;;2.90;2.80;;;20.60;46.10;;;;;;6313568;28;20280;-79
2023/05/29 08:34:15;;;;;;;2.97;2.80;;;20.50;46.10;;;;;;6315193;28;20378;-78
2023/05/29 08:37:20;;;;;;;3.23;3.03;;;20.60;46.20;;;;;;6318804;28;20262;-77
2023/05/29 08:40:24;;;;;;;4.13;3.30;;;20.50;46.20;;;;;;6310577;28;20337;-78
2023/05/29 08:43:32;;;;;;;3.40;3.30;;;20.50;45.70;;;;;;6310941;28;20256;-78
2023/05/29 08:46:37;;;;;;;3.87;3.53;;;20.70;45.70;;;;;;6299599;28;20246;-78
2023/05/29 08:49:43;;;;;;;3.03;2.90;;;20.90;45.20;;;;;;6310678;28;20236;-79
2023/05/29 08:52:48;;;;;;;2.90;2.80;;;21.10;45.00;;;;;;6310550;28;20263;-78
2023/05/29 08:55:52;;;;;;;3.10;3.00;;;21.30;44.70;;;;;;6304361;28;20308;-79
2023/05/29 08:58:56;;;;;;;3.27;3.13;;;21.50;44.90;;;;;;6307233;28;20244;-81
2023/05/29 09:01:59;;;;;;;3.70;3.50;;;21.60;44.50;;;;;;6318149;28;20232;-78
2023/05/29 09:05:03;;;;;;;3.20;3.10;;;21.50;44.80;;;;;;6320544;28;20243;-78
2023/05/29 09:08:08;;;;;;;2.97;2.90;;;21.30;45.10;;;;;;6325255;28;20314;-79
2023/05/29 09:11:11;;;;;;;3.60;3.40;;;21.20;45.00;;;;;;6326107;28;20719;-77
2023/05/29 09:14:33;;;;;;;3.23;3.13;;;21.30;45.60;;;;;;6324016;28;20259;-77
2023/05/29 09:17:36;;;;;;;4.23;3.80;;;21.40;46.10;;;;;;6304376;27;20274;-79
2023/05/29 09:20:40;;;;;;;3.67;3.43;;;21.50;45.30;;;;;;6342310;27;20658;-79
2023/05/29 09:23:45;;;;;;;3.93;3.60;;;21.50;45.20;;;;;;6320594;28;20243;-78
2023/05/29 09:26:50;;;;;;;3.63;3.43;;;21.50;45.80;;;;;;6315957;28;20250;-78
2023/05/29 09:29:53;;;;;;;3.50;3.30;;;21.70;45.60;;;;;;6312401;28;20304;-79
2023/05/29 09:32:56;;;;;;;3.60;3.30;;;21.90;45.60;;;;;;6319279;28;20229;-80
2023/05/29 09:36:00;;;;;;;3.87;3.60;;;22.20;45.60;;;;;;6309193;28;20987;-77
2023/05/29 09:39:09;;;;;;;3.60;3.40;;;22.50;44.60;;;;;;6326432;28;20301;-79
2023/05/29 09:42:19;;;;;;;3.10;3.00;;;22.30;45.00;;;;;;6315615;28;20293;-77
2023/05/29 09:45:23;;;;;;;3.73;3.53;;;22.10;45.10;;;;;;6311099;28;20247;-79
2023/05/29 09:48:27;;;;;;;3.70;3.60;;;22.30;44.60;;;;;;6314921;28;20748;-79
2023/05/29 09:51:34;;;;;;;3.67;3.57;;;22.30;44.30;;;;;;6314508;27;20857;-79
2023/05/29 09:54:39;;;;;;;3.43;3.33;;;22.30;44.20;;;;;;6303907;28;20316;-78
2023/05/29 09:57:43;;;;;;;4.13;3.70;;;22.30;43.90;;;;;;6310416;27;20331;-79
2023/05/29 10:00:48;;;;;;;4.07;3.80;;;22.20;44.00;;;;;;6334664;27;20704;-78
2023/05/29 10:03:51;;;;;;;4.20;3.90;;;22.00;44.10;;;;;;6312380;28;20802;-79
2023/05/29 10:06:57;;;;;;;4.13;3.87;;;21.90;44.60;;;;;;6311584;28;20228;-78
2023/05/29 10:10:05;;;;;;;3.90;3.70;;;21.90;45.10;;;;;;6333178;27;20231;-80
2023/05/29 10:13:11;;;;;;;4.33;3.87;;;21.90;44.30;;;;;;6314020;28;20235;-79
2023/05/29 10:16:15;;;;;;;3.87;3.60;;;21.90;44.60;;;;;;6309238;28;20233;-79
2023/05/29 10:19:26;;;;;;;3.57;3.40;;;22.00;44.50;;;;;;6341803;27;20233;-80
2023/05/29 10:22:29;;;;;;;3.50;3.40;;;21.90;44.60;;;;;;6336249;27;20244;-79
2023/05/29 10:25:36;;;;;;;3.90;3.70;;;21.70;44.70;;;;;;6321881;28;20228;-79
2023/05/29 10:28:45;;;;;;;3.90;3.63;;;21.80;45.00;;;;;;6296780;28;20243;-80
2023/05/29 10:32:02;;;;;;;4.07;3.57;;;22.00;45.10;;;;;;6312444;28;20323;-76
2023/05/29 10:35:12;;;;;;;3.63;3.47;;;22.00;44.60;;;;;;6309004;28;20236;-78
2023/05/29 10:38:18;;;;;;;3.93;3.80;;;21.90;44.10;;;;;;6311766;27;20706;-78
2023/05/29 10:41:39;;;;;;;3.70;3.50;;;21.70;44.80;;;;;;6333002;27;20289;-79
2023/05/29 10:44:42;;;;;;;3.70;3.60;;;21.70;43.90;;;;;;6312823;28;20236;-78
2023/05/29 10:47:46;;;;;;;3.63;3.33;;;22.10;43.60;;;;;;6313308;28;20278;-77
2023/05/29 10:50:50;;;;;;;3.90;3.30;;;22.30;43.80;;;;;;6315006;28;20386;-78
2023/05/29 10:53:54;;;;;;;3.80;3.60;;;22.60;43.30;;;;;;6317501;27;20332;-80
2023/05/29 10:57:01;;;;;;;3.23;3.17;;;22.80;43.10;;;;;;6313171;28;20698;-78
2023/05/29 11:00:12;;;;;;;3.57;3.27;;;22.70;42.80;;;;;;6308564;28;20244;-78
2023/05/29 11:03:16;;;;;;;3.50;3.20;;;22.50;43.00;;;;;;6313890;27;20251;-79
2023/05/29 11:06:21;;;;;;;3.50;3.40;;;22.30;42.80;;;;;;6322329;27;20305;-79
2023/05/29 11:09:34;;;;;;;3.60;3.43;;;22.20;43.30;;;;;;6305860;28;20267;-78
2023/05/29 11:12:57;;;;;;;4.37;4.03;;;22.30;43.90;;;;;;6311235;28;20237;-79
2023/05/29 11:16:14;;;;;;;3.17;3.07;;;22.70;43.10;;;;;;6336115;27;20779;-79
2023/05/29 11:19:18;;;;;;;3.97;3.57;;;22.80;42.70;;;;;;6302915;28;20305;-79
2023/05/29 11:22:29;;;;;;;3.37;3.27;;;23.00;42.50;;;;;;6315888;27;20248;-78
2023/05/29 11:25:35;;;;;;;3.57;3.27;;;23.30;42.30;;;;;;6315085;27;20592;-76
2023/05/29 11:28:40;;;;;;;3.23;3.13;;;23.40;41.80;;;;;;6316124;27;20378;-77
2023/05/29 11:31:44;;;;;;;3.97;3.33;;;23.20;41.80;;;;;;6309191;28;20769;-78
2023/05/29 11:34:48;;;;;;;3.83;3.53;;;23.20;42.20;;;;;;6335342;27;20231;-78
2023/05/29 11:37:52;;;;;;;5.23;3.67;;;23.10;42.80;;;;;;6311592;27;20397;-76
2023/05/29 11:40:56;;;;;;;3.87;3.57;;;22.90;42.80;;;;;;6313744;28;20728;-79
2023/05/29 11:44:02;;;;;;;3.83;3.53;;;22.60;42.50;;;;;;6311684;28;21547;-79
2023/05/29 11:47:07;;;;;;;3.67;3.37;;;22.80;43.00;;;;;;6311185;28;20229;-78
2023/05/29 11:50:19;;;;;;;3.67;3.53;;;23.10;42.60;;;;;;6309631;28;20237;-79
2023/05/29 11:53:23;;;;;;;3.77;3.43;;;23.50;42.20;;;;;;6310675;28;20233;-78
2023/05/29 11:56:26;;;;;;;4.00;3.60;;;23.50;42.00;;;;;;6331205;27;20258;-77
2023/05/29 11:59:31;;;;;;;3.70;3.40;;;23.10;42.20;;;;;;6312133;27;20240;-81
2023/05/29 12:02:34;;;;;;;3.80;3.60;;;23.00;42.50;;;;;;6323036;27;20319;-78
2023/05/29 12:05:46;;;;;;;3.63;3.33;;;23.10;42.10;;;;;;6336145;27;20250;-78
2023/05/29 12:08:52;;;;;;;3.90;3.63;;;23.10;42.50;;;;;;6339661;27;20670;-78
2023/05/29 12:12:01;;;;;;;3.70;3.30;;;23.00;42.00;;;;;;6309841;28;20758;-80
2023/05/29 12:15:08;;;;;;;3.33;3.23;;;23.30;41.30;;;;;;6312219;28;20312;-80
2023/05/29 12:18:11;;;;;;;3.67;3.47;;;23.40;41.30;;;;;;6312796;28;20228;-80
2023/05/29 12:21:16;;;;;;;6.17;3.50;;;23.40;42.30;;;;;;6306124;28;20243;-77
2023/05/29 12:24:20;;;;;;;4.10;3.90;;;23.60;41.40;;;;;;6330736;27;20680;-78
2023/05/29 12:27:28;;;;;;;3.60;3.27;;;23.70;41.40;;;;;;6308273;28;21000;-79
2023/05/29 12:30:40;;;;;;;3.63;3.43;;;23.80;41.50;;;;;;6305416;28;20244;-79
2023/05/29 12:33:44;;;;;;;3.87;3.67;;;23.60;41.60;;;;;;6304679;28;20229;-77
2023/05/29 12:36:47;;;;;;;4.37;3.50;;;23.40;42.20;;;;;;6303426;28;20318;-79
2023/05/29 12:40:13;;;;;;;4.30;3.90;;;23.40;42.10;;;;;;6309016;28;20232;-78
2023/05/29 12:43:17;;;;;;;4.80;3.53;;;22.90;42.00;;;;;;6310068;28;20398;-79
2023/05/29 12:46:21;;;;;;;3.97;3.70;;;22.80;42.10;;;;;;6323152;27;20291;-77
2023/05/29 12:49:26;;;;;;;4.10;3.77;;;22.70;42.20;;;;;;6316774;27;20232;-79
2023/05/29 12:52:30;;;;;;;3.80;3.60;;;22.70;42.00;;;;;;6315585;28;20746;-77
2023/05/29 12:55:36;;;;;;;3.90;3.50;;;22.80;41.70;;;;;;6294073;28;20237;-76
2023/05/29 12:58:40;;;;;;;3.77;3.57;;;22.60;41.60;;;;;;6288507;27;20364;-79
2023/05/29 13:01:44;;;;;;;3.60;3.40;;;22.70;42.00;;;;;;6287415;28;20848;-77
2023/05/29 13:04:49;;;;;;;3.50;3.20;;;22.90;41.70;;;;;;6280791;28;20248;-77
2023/05/29 13:07:52;;;;;;;4.73;4.20;;;23.00;41.40;;;;;;6289781;28;20237;-78
2023/05/29 13:10:55;;;;;;;3.77;3.50;;;22.90;41.50;;;;;;6294518;28;20732;-79
2023/05/29 13:13:58;;;;;;;3.90;3.60;;;22.90;41.60;;;;;;6306440;27;20362;-79
2023/05/29 13:17:03;;;;;;;4.17;3.73;;;23.10;42.00;;;;;;6298655;28;20233;-78
2023/05/29 13:20:09;;;;;;;3.70;3.40;;;23.20;41.80;;;;;;6284397;27;20839;-77
2023/05/29 13:23:12;;;;;;;3.43;3.23;;;23.10;41.40;;;;;;6300794;27;20696;-78
2023/05/29 13:26:15;;;;;;;3.43;3.13;;;23.10;41.40;;;;;;6295117;28;20722;-78
2023/05/29 13:29:19;;;;;;;4.00;3.70;;;23.10;41.30;;;;;;6285997;28;20272;-77
2023/05/29 13:32:25;;;;;;;5.77;3.23;;;23.00;41.20;;;;;;6284884;27;20310;-78
2023/05/29 13:35:28;;;;;;;4.27;3.87;;;23.10;41.10;;;;;;6294899;28;20238;-77
2023/05/29 13:38:31;;;;;;;3.67;3.33;;;23.20;41.10;;;;;;6288634;28;20290;-78
2023/05/29 13:41:34;;;;;;;4.37;3.27;;;23.20;41.40;;;;;;6284322;28;20321;-79
2023/05/29 13:44:38;;;;;;;3.53;3.33;;;23.20;40.60;;;;;;6298499;28;20732;-78
2023/05/29 13:47:43;;;;;;;3.50;3.23;;;23.00;41.20;;;;;;6289285;27;20237;-78
2023/05/29 13:50:46;;;;;;;3.60;3.20;;;22.70;41.80;;;;;;6294545;28;20456;-76
2023/05/29 13:53:49;;;;;;;5.43;3.53;;;22.90;42.00;;;;;;6304034;28;20257;-79
2023/05/29 13:56:52;;;;;;;3.60;3.40;;;23.10;41.90;;;;;;6293221;28;20746;-77
2023/05/29 13:59:55;;;;;;;3.70;3.23;;;23.20;41.60;;;;;;6308414;27;20234;-80
2023/05/29 14:03:00;;;;;;;5.63;3.23;;;23.20;40.80;;;;;;6294590;28;20238;-79
2023/05/29 14:06:04;;;;;;;4.07;3.67;;;23.00;41.00;;;;;;6290482;28;20233;-77
2023/05/29 14:09:09;;;;;;;3.63;3.43;;;23.20;41.30;;;;;;6293938;28;20246;-79
2023/05/29 14:12:12;;;;;;;3.50;3.20;;;23.00;41.10;;;;;;6287495;28;20240;-80
2023/05/29 14:15:16;;;;;;;3.73;3.40;;;22.70;41.60;;;;;;6289693;28;20785;-79
2023/05/29 14:18:20;;;;;;;3.67;3.37;;;22.60;41.50;;;;;;6296193;28;20248;-77
2023/05/29 14:21:25;;;;;;;3.90;3.57;;;22.60;41.80;;;;;;6286947;28;20245;-78
2023/05/29 14:24:28;;;;;;;3.83;3.53;;;22.60;41.40;;;;;;6295533;28;20233;-78
2023/05/29 14:27:33;;;;;;;4.30;3.00;;;22.80;41.10;;;;;;6301378;28;20267;-78
2023/05/29 14:30:36;;;;;;;3.67;3.37;;;22.90;41.10;;;;;;6300199;28;20238;-79
2023/05/29 14:33:40;;;;;;;3.30;3.20;;;23.20;41.00;;;;;;6298286;27;20360;-79
2023/05/29 14:36:44;;;;;;;4.93;3.33;;;23.10;40.80;;;;;;6294160;28;20229;-77
2023/05/29 14:39:48;;;;;;;4.13;3.70;;;22.90;41.30;;;;;;6287591;28;20230;-79
2023/05/29 14:42:51;;;;;;;3.73;3.43;;;22.70;42.10;;;;;;6298658;27;20244;-78
2023/05/29 14:45:54;;;;;;;4.27;3.30;;;22.50;42.20;;;;;;6309933;27;20235;-78
2023/05/29 14:49:00;;;;;;;3.80;3.60;;;22.20;42.60;;;;;;6281825;27;20325;-77
2023/05/29 14:52:04;;;;;;;4.27;3.40;;;22.30;42.40;;;;;;6291189;28;20241;-77
2023/05/29 14:55:08;;;;;;;3.70;3.30;;;22.50;42.20;;;;;;6294270;28;20291;-78
2023/05/29 14:58:12;;;;;;;3.53;3.23;;;22.50;42.10;;;;;;6292745;28;20241;-77
2023/05/29 15:01:15;;;;;;;3.70;3.27;;;22.50;41.70;;;;;;6288308;28;20252;-79
2023/05/29 15:04:20;;;;;;;3.63;3.33;;;22.30;41.80;;;;;;6316195;27;20323;-77
2023/05/29 15:07:23;;;;;;;3.67;3.37;;;22.20;41.90;;;;;;6297102;27;20874;-78
2023/05/29 15:10:27;;;;;;;4.33;3.10;;;22.10;41.80;;;;;;6286310;28;20254;-78
2023/05/29 15:13:30;;;;;;;3.30;3.10;;;22.10;41.60;;;;;;6291411;28;20237;-79
2023/05/29 15:16:33;;;;;;;2.93;2.70;;;22.20;41.20;;;;;;6294949;28;20320;-77
2023/05/29 15:19:38;;;;;;;3.97;3.47;;;22.50;41.50;;;;;;6283337;28;20716;-78
2023/05/29 15:22:41;;;;;;;5.53;3.40;;;22.50;41.40;;;;;;6280027;28;20234;-79
2023/05/29 15:25:44;;;;;;;4.53;3.00;;;22.50;41.50;;;;;;6286634;28;20302;-79
2023/05/29 15:28:47;;;;;;;3.80;3.50;;;22.60;41.20;;;;;;6291164;28;20228;-79
2023/05/29 15:31:50;;;;;;;3.20;2.93;;;22.70;41.00;;;;;;6290342;28;20680;-77
2023/05/29 15:34:55;;;;;;;3.10;2.80;;;22.60;41.10;;;;;;6301216;28;20333;-78
2023/05/29 15:37:58;;;;;;;3.33;3.13;;;22.60;41.60;;;;;;6295963;27;20251;-80
2023/05/29 15:41:01;;;;;;;4.20;3.13;;;22.50;41.80;;;;;;6288151;28;20233;-80
2023/05/29 15:44:04;;;;;;;4.17;3.07;;;22.30;42.20;;;;;;6303431;28;20225;-79
2023/05/29 15:47:08;;;;;;;3.47;3.17;;;22.20;42.40;;;;;;6282565;27;20238;-79
2023/05/29 15:50:12;;;;;;;4.77;3.50;;;22.30;42.20;;;;;;6289499;28;20233;-78
2023/05/29 15:53:17;;;;;;;4.57;3.27;;;22.20;41.90;;;;;;6318612;27;20232;-77
2023/05/29 15:56:24;;;;;;;3.43;3.20;;;22.30;41.60;;;;;;6289629;28;20379;-77
2023/05/29 15:59:29;;;;;;;4.43;2.90;;;22.40;41.90;;;;;;6301932;27;20249;-78
2023/05/29 16:02:33;;;;;;;3.10;2.87;;;22.40;41.60;;;;;;6281301;27;20585;-77